createdAt,value
2023-03-07T00:02:58.686Z,1.10
2023-03-07T00:08:00.576Z,1.10
2023-03-07T00:13:05.006Z,1.10
2023-03-07T00:18:07.446Z,1.10
2023-03-07T00:23:09.172Z,1.10
2023-03-07T00:28:10.918Z,1.10
2023-03-07T00:33:12.647Z,1.10
2023-03-07T00:38:14.383Z,1.00
2023-03-07T00:43:16.196Z,1.00
2023-03-07T00:48:18.281Z,1.00
2023-03-07T00:53:21.292Z,1.00
2023-03-07T00:58:23.166Z,1.00
2023-03-07T01:03:25.726Z,1.00
2023-03-07T01:08:27.499Z,1.00
2023-03-07T01:13:29.627Z,1.00
2023-03-07T01:18:31.570Z,1.00
2023-03-07T01:23:33.482Z,0.90
2023-03-07T01:28:35.365Z,0.90
2023-03-07T01:33:37.320Z,0.90
2023-03-07T01:38:39.347Z,0.90
2023-03-07T01:43:41.607Z,0.90
2023-03-07T01:49:11.209Z,0.90
2023-03-07T01:54:17.458Z,0.90
2023-03-07T01:59:31.302Z,0.90
2023-03-07T02:04:51.015Z,0.90
2023-03-07T02:09:54.277Z,1.00
2023-03-07T02:14:56.273Z,0.90
2023-03-07T02:20:01.443Z,0.90
2023-03-07T02:25:03.301Z,0.90
2023-03-07T02:30:07.921Z,0.90
2023-03-07T02:35:20.757Z,0.90
2023-03-07T02:40:28.904Z,0.90
2023-03-07T02:45:31.066Z,0.90
2023-03-07T02:50:32.905Z,0.80
2023-03-07T02:55:34.884Z,0.80
2023-03-07T03:00:40.952Z,0.70
2023-03-07T03:05:42.832Z,0.80
2023-03-07T03:10:44.664Z,0.70
2023-03-07T03:15:48.428Z,0.80
2023-03-07T03:20:50.207Z,0.80
2023-03-07T03:26:07.732Z,0.80
2023-03-07T03:31:15.032Z,0.80
2023-03-07T03:36:17.216Z,0.80
2023-03-07T03:41:22.777Z,0.80
2023-03-07T03:46:24.796Z,0.80
2023-03-07T03:51:26.917Z,0.80
2023-03-07T03:56:30.294Z,0.80
2023-03-07T04:01:33.055Z,0.80
2023-03-07T04:06:35.498Z,0.80
2023-03-07T04:11:37.701Z,0.80
2023-03-07T04:16:39.538Z,0.80
2023-03-07T04:21:41.726Z,0.70
2023-03-07T04:26:44.107Z,0.70
2023-03-07T04:31:46.512Z,0.80
2023-03-07T04:36:48.797Z,0.80
2023-03-07T04:41:50.673Z,0.80
2023-03-07T04:46:54.083Z,0.80
2023-03-07T04:51:55.944Z,0.70
2023-03-07T04:56:57.911Z,0.70
2023-03-07T05:01:59.839Z,0.70
2023-03-07T05:07:02.831Z,0.70
2023-03-07T05:12:04.990Z,0.70
2023-03-07T05:17:07.042Z,0.70
2023-03-07T05:22:09.771Z,0.80
2023-03-07T05:27:12.004Z,0.80
2023-03-07T05:32:14.088Z,0.80
2023-03-07T05:37:15.932Z,0.80
2023-03-07T05:42:18.007Z,0.80
2023-03-07T05:47:22.637Z,0.80
2023-03-07T05:52:24.522Z,0.80
2023-03-07T05:57:26.494Z,0.80
2023-03-07T06:02:28.452Z,0.90
2023-03-07T06:07:30.334Z,0.90
2023-03-07T06:12:32.122Z,0.90
2023-03-07T06:17:33.985Z,1.00
2023-03-07T06:22:38.162Z,0.90
2023-03-07T06:27:40.521Z,1.00
2023-03-07T06:32:42.758Z,1.00
2023-03-07T06:37:44.908Z,1.00
2023-03-07T06:42:46.852Z,1.00
2023-03-07T06:47:49.023Z,1.00
2023-03-07T06:52:51.803Z,1.10
2023-03-07T06:57:54.094Z,1.10
2023-03-07T07:02:56.197Z,1.10
2023-03-07T07:07:58.048Z,1.10
2023-03-07T07:12:59.979Z,1.20
2023-03-07T07:18:02.860Z,1.20
2023-03-07T07:23:06.903Z,1.20
2023-03-07T07:28:09.551Z,1.30
2023-03-07T07:33:11.550Z,1.30
2023-03-07T07:38:14.030Z,1.40
2023-03-07T07:43:17.170Z,1.40
2023-03-07T07:48:23.943Z,1.50
2023-03-07T07:53:25.821Z,1.50
2023-03-07T07:58:27.754Z,1.60
2023-03-07T08:03:30.172Z,1.60
2023-03-07T08:08:32.686Z,1.60
2023-03-07T08:13:34.404Z,1.70
2023-03-07T08:18:36.149Z,1.80
2023-03-07T08:23:37.949Z,1.80
2023-03-07T08:28:40.825Z,1.90
2023-03-07T08:33:43.339Z,1.90
2023-03-07T08:38:51.472Z,2.00
2023-03-07T08:43:53.690Z,2.10
2023-03-07T08:48:55.512Z,2.10
2023-03-07T08:53:58.154Z,2.20
2023-03-07T08:58:59.880Z,2.30
2023-03-07T09:04:02.449Z,2.40
2023-03-07T09:09:05.953Z,2.40
2023-03-07T09:14:07.772Z,2.40
2023-03-07T09:19:09.747Z,2.40
2023-03-07T09:24:11.490Z,2.40
2023-03-07T09:29:13.315Z,2.50
2023-03-07T09:34:15.828Z,2.40
2023-03-07T09:39:17.593Z,2.50
2023-03-07T09:44:35.458Z,2.60
2023-03-07T09:50:03.739Z,2.70
2023-03-07T09:55:27.804Z,2.80
2023-03-07T10:00:41.521Z,2.90
2023-03-07T10:05:48.445Z,3.00
2023-03-07T10:11:16.686Z,3.10
2023-03-07T10:16:18.517Z,3.20
2023-03-07T10:21:25.480Z,3.20
2023-03-07T10:26:35.688Z,3.30
2023-03-07T10:31:40.880Z,3.50
2023-03-07T10:36:46.722Z,3.60
2023-03-07T10:41:49.113Z,3.70
2023-03-07T10:46:57.495Z,3.80
2023-03-07T10:52:17.913Z,4.10
2023-03-07T10:57:27.013Z,4.20
2023-03-07T11:02:41.838Z,4.50
2023-03-07T11:07:43.614Z,4.80
2023-03-07T11:12:48.934Z,5.10
2023-03-07T11:17:52.406Z,5.10
2023-03-07T11:23:12.412Z,5.20
2023-03-07T11:28:25.685Z,5.30
2023-03-07T11:33:40.544Z,5.30
2023-03-07T11:39:04.746Z,5.50
2023-03-07T11:44:34.012Z,5.50
2023-03-07T11:49:46.512Z,5.50
2023-03-07T11:55:12.375Z,5.50
2023-03-07T12:00:51.745Z,5.50
2023-03-07T12:06:15.418Z,5.40
2023-03-07T12:11:36.971Z,5.40
2023-03-07T12:16:52.496Z,5.30
2023-03-07T12:22:02.879Z,5.20
2023-03-07T12:27:13.635Z,5.20
2023-03-07T12:32:24.119Z,5.30
2023-03-07T12:37:33.151Z,5.40
2023-03-07T12:42:49.838Z,5.50
2023-03-07T12:47:55.221Z,5.80
2023-03-07T12:53:22.575Z,6.20
2023-03-07T12:58:55.445Z,6.40
2023-03-07T13:04:03.709Z,6.60
2023-03-07T13:09:06.068Z,6.70
2023-03-07T13:14:30.647Z,7.00
2023-03-07T13:19:35.272Z,7.10
2023-03-07T13:24:42.017Z,6.90
2023-03-07T13:30:04.985Z,7.00
2023-03-07T13:35:09.738Z,6.90
2023-03-07T13:40:34.703Z,7.20
2023-03-07T13:45:39.566Z,7.50
2023-03-07T13:50:54.134Z,7.60
2023-03-07T13:56:14.934Z,7.50
2023-03-07T14:01:31.117Z,7.40
2023-03-07T14:06:45.710Z,7.40
2023-03-07T14:11:52.057Z,7.10
2023-03-07T14:17:41.824Z,7.00
2023-03-07T14:23:17.324Z,6.90
2023-03-07T14:28:26.851Z,6.70
2023-03-07T14:33:37.480Z,6.60
2023-03-07T14:38:40.991Z,6.60
2023-03-07T14:44:05.558Z,6.60
2023-03-07T14:49:12.603Z,6.60
2023-03-07T14:54:19.436Z,6.50
2023-03-07T14:59:28.639Z,6.40
2023-03-07T15:04:33.246Z,6.40
2023-03-07T15:09:35.227Z,6.40
2023-03-07T15:14:54.035Z,6.40
2023-03-07T15:20:07.654Z,6.40
2023-03-07T15:25:25.674Z,6.40
2023-03-07T15:30:32.271Z,6.40
2023-03-07T15:35:34.391Z,6.40
2023-03-07T15:40:36.856Z,6.30
2023-03-07T15:45:41.244Z,6.10
2023-03-07T15:50:43.169Z,6.10
2023-03-07T15:55:53.925Z,6.00
2023-03-07T16:01:22.994Z,5.90
2023-03-07T16:06:45.146Z,5.70
2023-03-07T16:11:47.532Z,5.50
2023-03-07T16:16:49.933Z,5.30
2023-03-07T16:21:51.876Z,5.20
2023-03-07T16:26:53.719Z,5.20
2023-03-07T16:31:55.727Z,5.10
2023-03-07T16:36:57.560Z,5.10
2023-03-07T16:41:59.602Z,5.10
2023-03-07T16:47:27.919Z,5.00
2023-03-07T16:52:29.647Z,4.90
2023-03-07T16:57:31.477Z,4.70
2023-03-07T17:02:33.360Z,4.50
2023-03-07T17:07:35.189Z,4.20
2023-03-07T17:12:37.114Z,4.10
2023-03-07T17:17:38.912Z,4.10
2023-03-07T17:22:40.924Z,3.80
2023-03-07T17:27:46.593Z,3.50
2023-03-07T17:32:48.385Z,3.30
2023-03-07T17:37:53.010Z,3.20
2023-03-07T17:42:55.043Z,3.10
2023-03-07T17:47:56.940Z,3.00
2023-03-07T17:52:58.763Z,2.90
2023-03-07T17:58:00.572Z,2.70
2023-03-07T18:03:02.720Z,2.60
2023-03-07T18:08:05.118Z,2.40
2023-03-07T18:13:09.369Z,2.50
2023-03-07T18:18:11.564Z,2.40
2023-03-07T18:23:13.310Z,2.40
2023-03-07T18:28:15.449Z,2.30
2023-03-07T18:33:17.227Z,2.20
2023-03-07T18:38:19.426Z,2.20
2023-03-07T18:43:21.263Z,2.10
2023-03-07T18:48:23.088Z,2.00
2023-03-07T18:53:25.272Z,1.90
2023-03-07T18:58:27.023Z,1.70
2023-03-07T19:03:28.999Z,1.40
2023-03-07T19:08:30.888Z,1.30
2023-03-07T19:13:32.922Z,1.10
2023-03-07T19:18:36.617Z,1.10
2023-03-07T19:23:39.320Z,1.00
2023-03-07T19:28:41.086Z,0.90
2023-03-07T19:33:43.839Z,0.80
2023-03-07T19:38:50.327Z,0.80
2023-03-07T19:43:52.808Z,0.80
2023-03-07T19:48:55.530Z,0.80
2023-03-07T19:53:59.571Z,0.90
2023-03-07T19:59:02.428Z,0.90
2023-03-07T20:04:06.498Z,0.90
2023-03-07T20:09:11.478Z,0.90
2023-03-07T20:14:13.335Z,0.90
2023-03-07T20:19:15.602Z,0.90
2023-03-07T20:24:18.601Z,0.90
2023-03-07T20:29:20.383Z,1.00
2023-03-07T20:34:25.318Z,0.90
2023-03-07T20:39:27.841Z,0.90
2023-03-07T20:44:29.906Z,0.90
2023-03-07T20:49:37.647Z,0.90
2023-03-07T20:54:41.992Z,0.80
2023-03-07T20:59:43.975Z,0.90
2023-03-07T21:04:47.734Z,0.90
2023-03-07T21:09:52.573Z,0.80
2023-03-07T21:14:54.355Z,0.90
2023-03-07T21:19:56.486Z,0.80
2023-03-07T21:24:58.416Z,0.80
2023-03-07T21:30:00.165Z,0.80
2023-03-07T21:35:04.327Z,0.80
2023-03-07T21:40:10.912Z,0.80
2023-03-07T21:45:14.860Z,0.90
2023-03-07T21:50:17.747Z,0.90
2023-03-07T21:55:21.292Z,1.00
2023-03-07T22:00:23.733Z,1.00
2023-03-07T22:05:27.066Z,0.90
2023-03-07T22:10:28.914Z,0.90
2023-03-07T22:15:30.854Z,0.90
2023-03-07T22:20:33.208Z,0.90
2023-03-07T22:25:35.061Z,0.90
2023-03-07T22:30:36.814Z,0.80
2023-03-07T22:35:38.742Z,0.80
2023-03-07T22:40:40.554Z,0.80
2023-03-07T22:45:49.759Z,0.80
2023-03-07T22:50:51.775Z,0.90
2023-03-07T22:55:53.703Z,0.90
2023-03-07T23:00:55.890Z,0.90
2023-03-07T23:06:01.973Z,0.90
2023-03-07T23:11:06.365Z,0.90
2023-03-07T23:16:11.484Z,0.80
2023-03-07T23:21:15.588Z,0.80
2023-03-07T23:26:20.123Z,0.90
2023-03-07T23:31:24.866Z,0.90
2023-03-07T23:36:29.111Z,1.00
2023-03-07T23:41:31.023Z,1.00
2023-03-07T23:46:32.901Z,1.10
2023-03-07T23:51:34.683Z,1.10
2023-03-07T23:56:36.411Z,1.10
